sensor_id;sensor_type;location;lat;lon;timestamp;temperature;humidity
18662;DHT22;61528;49.456;11.098;2022-07-17T12:06:07;25.00;50.30
18662;DHT22;61528;49.456;11.098;2022-07-17T12:08:34;25.10;50.20
18662;DHT22;61528;49.456;11.098;2022-07-17T12:11:07;25.20;50.50
18662;DHT22;61528;49.456;11.098;2022-07-17T12:13:45;25.30;50.80
18662;DHT22;61528;49.456;11.098;2022-07-17T12:18:57;25.30;50.60
18662;DHT22;61528;49.456;11.098;2022-07-17T12:21:23;25.50;50.20
18662;DHT22;61528;49.456;11.098;2022-07-17T12:23:58;25.50;49.60
18662;DHT22;61528;49.456;11.098;2022-07-17T12:26:24;25.60;50.00
18662;DHT22;61528;49.456;11.098;2022-07-17T12:28:50;25.60;48.60
18662;DHT22;61528;49.456;11.098;2022-07-17T12:31:16;25.60;48.40
18662;DHT22;61528;49.456;11.098;2022-07-17T12:33:43;25.70;47.80
18662;DHT22;61528;49.456;11.098;2022-07-17T12:36:09;25.60;47.60
18662;DHT22;61528;49.456;11.098;2022-07-17T12:38:35;25.70;48.10
18662;DHT22;61528;49.456;11.098;2022-07-17T12:41:01;25.80;48.70
18662;DHT22;61528;49.456;11.098;2022-07-17T12:43:27;26.00;48.80
18662;DHT22;61528;49.456;11.098;2022-07-17T12:45:53;26.00;48.60
18662;DHT22;61528;49.456;11.098;2022-07-17T12:48:19;26.00;47.50
18662;DHT22;61528;49.456;11.098;2022-07-17T12:50:45;26.00;47.40
18662;DHT22;61528;49.456;11.098;2022-07-17T12:53:11;26.10;47.70
18662;DHT22;61528;49.456;11.098;2022-07-17T12:55:37;26.00;47.30
18662;DHT22;61528;49.456;11.098;2022-07-17T12:58:04;26.10;46.90
18662;DHT22;61528;49.456;11.098;2022-07-17T13:00:30;26.00;47.10
18662;DHT22;61528;49.456;11.098;2022-07-17T13:02:56;26.10;48.00
18662;DHT22;61528;49.456;11.098;2022-07-17T13:05:22;26.20;47.70
18662;DHT22;61528;49.456;11.098;2022-07-17T13:07:49;26.20;47.60
18662;DHT22;61528;49.456;11.098;2022-07-17T13:10:16;26.30;47.30
18662;DHT22;61528;49.456;11.098;2022-07-17T13:12:42;26.30;47.30
18662;DHT22;61528;49.456;11.098;2022-07-17T13:15:09;26.20;46.90
18662;DHT22;61528;49.456;11.098;2022-07-17T13:17:35;26.40;46.90
18662;DHT22;61528;49.456;11.098;2022-07-17T13:20:03;26.50;44.50
18662;DHT22;61528;49.456;11.098;2022-07-17T13:22:30;26.60;43.30
18662;DHT22;61528;49.456;11.098;2022-07-17T13:24:56;26.60;43.80
18662;DHT22;61528;49.456;11.098;2022-07-17T13:27:22;26.70;43.80
18662;DHT22;61528;49.456;11.098;2022-07-17T13:29:48;26.80;43.70
18662;DHT22;61528;49.456;11.098;2022-07-17T13:32:13;26.90;43.60
18662;DHT22;61528;49.456;11.098;2022-07-17T13:34:40;27.00;43.20
18662;DHT22;61528;49.456;11.098;2022-07-17T13:37:06;27.00;43.60
18662;DHT22;61528;49.456;11.098;2022-07-17T13:39:34;27.10;43.90
18662;DHT22;61528;49.456;11.098;2022-07-17T13:42:01;27.10;43.70
18662;DHT22;61528;49.456;11.098;2022-07-17T13:44:27;27.10;43.80
18662;DHT22;61528;49.456;11.098;2022-07-17T13:46:53;27.30;43.80
18662;DHT22;61528;49.456;11.098;2022-07-17T13:49:19;27.40;41.60
18662;DHT22;61528;49.456;11.098;2022-07-17T13:51:45;27.50;41.60
18662;DHT22;61528;49.456;11.098;2022-07-17T13:54:11;27.60;41.80
18662;DHT22;61528;49.456;11.098;2022-07-17T13:56:38;27.60;39.70
18662;DHT22;61528;49.456;11.098;2022-07-17T13:59:04;27.70;39.80
18662;DHT22;61528;49.456;11.098;2022-07-17T14:01:30;27.80;39.80
18662;DHT22;61528;49.456;11.098;2022-07-17T14:03:55;27.90;39.00
18662;DHT22;61528;49.456;11.098;2022-07-17T14:06:21;27.90;39.10
18662;DHT22;61528;49.456;11.098;2022-07-17T14:08:47;28.10;39.10
18662;DHT22;61528;49.456;11.098;2022-07-17T14:11:47;28.10;38.80
18662;DHT22;61528;49.456;11.098;2022-07-17T14:14:13;28.20;37.30
18662;DHT22;61528;49.456;11.098;2022-07-17T14:16:39;28.10;37.30
18662;DHT22;61528;49.456;11.098;2022-07-17T20:15:51;24.70;41.10
18662;DHT22;61528;49.456;11.098;2022-07-17T20:18:17;24.60;41.60
18662;DHT22;61528;49.456;11.098;2022-07-17T20:20:44;24.30;41.50
18662;DHT22;61528;49.456;11.098;2022-07-17T20:23:12;24.10;42.20
18662;DHT22;61528;49.456;11.098;2022-07-17T20:25:38;24.00;43.60
18662;DHT22;61528;49.456;11.098;2022-07-17T20:28:04;24.00;44.30
18662;DHT22;61528;49.456;11.098;2022-07-17T20:30:30;23.90;44.90
18662;DHT22;61528;49.456;11.098;2022-07-17T20:32:56;23.90;44.60
18662;DHT22;61528;49.456;11.098;2022-07-17T20:35:22;23.80;44.70
18662;DHT22;61528;49.456;11.098;2022-07-17T20:37:48;23.70;44.70
18662;DHT22;61528;49.456;11.098;2022-07-17T20:40:14;23.70;45.70
18662;DHT22;61528;49.456;11.098;2022-07-17T20:42:43;23.60;44.70
18662;DHT22;61528;49.456;11.098;2022-07-17T20:45:09;23.50;45.30
18662;DHT22;61528;49.456;11.098;2022-07-17T20:47:35;23.40;45.50
18662;DHT22;61528;49.456;11.098;2022-07-17T20:50:02;23.20;47.00
18662;DHT22;61528;49.456;11.098;2022-07-17T20:52:28;23.20;46.10
18662;DHT22;61528;49.456;11.098;2022-07-17T20:54:54;23.10;46.40
18662;DHT22;61528;49.456;11.098;2022-07-17T20:57:19;23.10;48.10
18662;DHT22;61528;49.456;11.098;2022-07-17T20:59:45;23.30;49.10
18662;DHT22;61528;49.456;11.098;2022-07-17T21:02:11;23.50;49.60
18662;DHT22;61528;49.456;11.098;2022-07-17T21:04:37;23.30;50.10
18662;DHT22;61528;49.456;11.098;2022-07-17T21:07:02;23.00;50.90
18662;DHT22;61528;49.456;11.098;2022-07-17T21:09:28;22.90;50.50
18662;DHT22;61528;49.456;11.098;2022-07-17T21:11:54;22.70;51.30
18662;DHT22;61528;49.456;11.098;2022-07-17T21:14:19;22.60;51.60
18662;DHT22;61528;49.456;11.098;2022-07-17T21:16:45;22.60;51.90
18662;DHT22;61528;49.456;11.098;2022-07-17T21:19:11;22.60;52.30
18662;DHT22;61528;49.456;11.098;2022-07-17T21:21:36;22.50;52.00
18662;DHT22;61528;49.456;11.098;2022-07-17T21:24:03;22.30;52.10
18662;DHT22;61528;49.456;11.098;2022-07-17T21:26:28;22.20;52.60
18662;DHT22;61528;49.456;11.098;2022-07-17T21:28:54;22.10;52.70
18662;DHT22;61528;49.456;11.098;2022-07-17T21:31:20;22.10;53.00
18662;DHT22;61528;49.456;11.098;2022-07-17T21:33:46;22.00;52.90
18662;DHT22;61528;49.456;11.098;2022-07-17T21:36:11;22.00;53.60
18662;DHT22;61528;49.456;11.098;2022-07-17T21:38:38;21.80;53.20
18662;DHT22;61528;49.456;11.098;2022-07-17T21:41:04;21.90;54.20
18662;DHT22;61528;49.456;11.098;2022-07-17T21:43:31;21.90;54.70
18662;DHT22;61528;49.456;11.098;2022-07-17T21:45:57;22.00;54.70
18662;DHT22;61528;49.456;11.098;2022-07-17T21:48:23;21.80;54.00
18662;DHT22;61528;49.456;11.098;2022-07-17T21:50:49;21.80;54.30
18662;DHT22;61528;49.456;11.098;2022-07-17T21:53:15;21.40;54.60
18662;DHT22;61528;49.456;11.098;2022-07-17T21:55:42;21.20;55.20
18662;DHT22;61528;49.456;11.098;2022-07-17T21:58:12;21.10;55.80
18662;DHT22;61528;49.456;11.098;2022-07-17T22:00:41;20.90;56.40
18662;DHT22;61528;49.456;11.098;2022-07-17T22:03:06;20.80;56.50
18662;DHT22;61528;49.456;11.098;2022-07-17T22:05:32;20.70;57.20
18662;DHT22;61528;49.456;11.098;2022-07-17T22:07:58;20.70;56.60
18662;DHT22;61528;49.456;11.098;2022-07-17T22:10:24;20.70;56.60
18662;DHT22;61528;49.456;11.098;2022-07-17T22:12:50;20.50;56.80
18662;DHT22;61528;49.456;11.098;2022-07-17T22:15:16;20.40;57.00
18662;DHT22;61528;49.456;11.098;2022-07-17T22:17:42;20.40;57.30
18662;DHT22;61528;49.456;11.098;2022-07-17T22:20:09;20.40;57.40
18662;DHT22;61528;49.456;11.098;2022-07-17T22:22:36;20.30;57.50
18662;DHT22;61528;49.456;11.098;2022-07-17T22:25:03;20.20;57.80
18662;DHT22;61528;49.456;11.098;2022-07-17T22:27:29;20.10;58.00
18662;DHT22;61528;49.456;11.098;2022-07-17T22:29:55;20.10;58.00
18662;DHT22;61528;49.456;11.098;2022-07-17T22:32:21;20.00;58.30
18662;DHT22;61528;49.456;11.098;2022-07-17T22:34:47;20.10;58.90
18662;DHT22;61528;49.456;11.098;2022-07-17T22:37:13;20.10;58.70
